Hovedside
METAR-TAF:

METAR-TAF

Lufthavner :

Bangui M'Poko internasjonale lufthavn

Bangui, Den sentralafrikanske republikk

breddegrad: 04-24N, lengdegrad: 018-31E, høyde over havet: 365 m

Gjeldene værobservasjon

Denne rapporten ble laget for 1 time og 1 minutter siden, klokken 03:00 UTC
Vind 2 kt fra skiftende retning
Temperatur 22°C
Luftfuktighet 94%
Trykk 1010 hPa
Sikt: 8000 m

METAR: FEFF 200300Z VRB02KT 8000 NSC 22/21 Q1010 NOSIG

Tid: 05:01 (04:01 UTC)

Varsel

Denne rapporten ble laget for 11 timer og 1 minutter siden, klokken 17:00 UTC
Varsel gyldig fra 19. klokken 18 UTC til 20. klokken 24 UTC
Vind 3 kt fra skiftende retning
Sikt: 6000 m
Blir
fra 20. klokken 08 UTC til 20. klokken 10 UTC
Brutte skyer i en høyde av 1300 ft
Få skyer i en høyde av 3300 ft, Bygeskyer.
Midlertidig
fra 20. klokken 15 UTC til 20. klokken 22 UTC
Sikt: 4000 m
torden, regn

TAF: FEFF 191700Z 1918/2024 VRB03KT 6000 NSC BECMG 2008/2010 BKN013 FEW033CB TEMPO 2015/2022 4000 TSRA

Værobservasjoner og værvarsel for over 4000 flyplasser (METAR- og TAF-rapporter).

Tilgjengelige stasjoner er representert av de røde og gule prikkene på kartet.

Hold musepekeren over prikken for å se navnet på stasjonen.

Klikk så for å se værobservasjoner og -varsler.

For å forandre kartet kan du klikke på den grønne knappen med svart kryss for å zoome inn, på den grønne knappen med strek for å zoome ut, eller på de grønne pilene for å se tilstøtende kart.


METAR-TAF: